Time;durP1;ratioP1;P1;durP2;ratioP2;P2;SDS_P1;SDS_P2;PMS_P1;PMS_P2;Temp;Humidity;BMP_temperature;BMP_pressure;BME280_temperature;BME280_humidity;BME280_pressure;Samples;Min_cycle;Max_cycle;Signal;HPM_P1;HPM_P2
2021/05/19 00:00:46;;;;;;;5.65;3.67;;;9.00;99.90;;;;;;5050440;28;20048;-85
2021/05/19 00:03:13;;;;;;;8.90;4.47;;;9.10;99.90;;;;;;5035491;28;20044;-86
2021/05/19 00:05:40;;;;;;;8.43;4.43;;;9.00;99.90;;;;;;5050108;28;20059;-85
2021/05/19 00:08:09;;;;;;;6.78;3.65;;;9.00;99.90;;;;;;5068316;28;20032;-86
2021/05/19 00:10:36;;;;;;;7.20;3.95;;;9.00;99.90;;;;;;5054983;28;20033;-86
2021/05/19 00:13:03;;;;;;;9.65;4.30;;;9.00;99.90;;;;;;5066078;28;20067;-86
2021/05/19 00:15:29;;;;;;;6.55;4.10;;;9.00;99.90;;;;;;5089080;28;20660;-85
2021/05/19 00:18:04;;;;;;;7.13;4.43;;;9.00;99.90;;;;;;5067330;28;20034;-86
2021/05/19 00:20:30;;;;;;;8.48;3.65;;;9.00;99.90;;;;;;5069181;28;20467;-86
2021/05/19 00:22:56;;;;;;;7.68;4.13;;;8.90;99.90;;;;;;5049094;28;20040;-85
2021/05/19 00:25:22;;;;;;;6.75;3.60;;;8.90;99.90;;;;;;5066681;28;20035;-86
2021/05/19 00:27:49;;;;;;;7.32;2.90;;;8.90;99.90;;;;;;5067838;28;20415;-85
2021/05/19 00:30:19;;;;;;;8.77;3.60;;;8.90;99.90;;;;;;5069684;28;20035;-85
2021/05/19 00:32:45;;;;;;;5.85;3.60;;;8.90;99.90;;;;;;5068229;28;20052;-85
2021/05/19 00:35:11;;;;;;;5.70;3.35;;;8.90;99.90;;;;;;5052196;28;20380;-86
2021/05/19 00:37:37;;;;;;;5.30;3.60;;;8.90;99.90;;;;;;5067985;28;20040;-85
2021/05/19 00:40:04;;;;;;;5.03;3.08;;;9.00;99.90;;;;;;5033006;28;20041;-86
2021/05/19 00:42:30;;;;;;;4.85;3.08;;;9.00;99.90;;;;;;5071488;28;20032;-84
2021/05/19 00:44:56;;;;;;;6.15;4.05;;;9.00;99.90;;;;;;5079226;28;20039;-85
2021/05/19 00:47:30;;;;;;;6.22;4.18;;;9.10;99.90;;;;;;5071501;28;20036;-85
2021/05/19 00:49:56;;;;;;;8.02;4.60;;;9.20;99.90;;;;;;5072704;28;20426;-85
2021/05/19 00:52:21;;;;;;;6.25;3.03;;;9.20;99.90;;;;;;5071618;28;20127;-85
2021/05/19 00:54:47;;;;;;;6.63;3.35;;;9.30;99.90;;;;;;5056153;28;20032;-85
2021/05/19 00:57:13;;;;;;;8.32;4.43;;;9.30;99.90;;;;;;5054057;28;20495;-85
2021/05/19 00:59:40;;;;;;;7.82;4.18;;;9.40;99.90;;;;;;5056722;28;20086;-85
2021/05/19 01:02:06;;;;;;;4.82;3.85;;;9.40;99.90;;;;;;5070976;28;20068;-85
2021/05/19 01:04:32;;;;;;;4.43;2.85;;;9.40;99.90;;;;;;5071767;28;20509;-85
2021/05/19 01:07:02;;;;;;;6.90;3.15;;;9.50;99.90;;;;;;5070994;28;20514;-85
2021/05/19 01:09:35;;;;;;;5.05;4.00;;;9.50;99.90;;;;;;5072636;28;20042;-86
2021/05/19 01:12:05;;;;;;;5.35;3.80;;;9.50;99.90;;;;;;5056246;28;20032;-85
2021/05/19 01:14:33;;;;;;;9.48;4.80;;;9.50;99.90;;;;;;5053154;28;20450;-85
2021/05/19 01:16:59;;;;;;;9.20;5.43;;;9.50;99.90;;;;;;5080880;28;20042;-85
2021/05/19 01:19:26;;;;;;;5.80;4.82;;;9.50;99.90;;;;;;5071794;28;20130;-85
2021/05/19 01:21:55;;;;;;;8.20;4.93;;;9.60;99.90;;;;;;5055397;28;20040;-85
2021/05/19 01:24:21;;;;;;;7.82;5.10;;;9.50;99.90;;;;;;5054799;28;20047;-86
2021/05/19 01:26:47;;;;;;;8.40;5.22;;;9.50;99.90;;;;;;5064540;28;20028;-85
2021/05/19 01:29:14;;;;;;;9.15;5.20;;;9.50;99.90;;;;;;5039651;28;20035;-86
2021/05/19 01:31:40;;;;;;;7.13;5.07;;;9.50;99.90;;;;;;5070972;28;20128;-85
2021/05/19 01:34:05;;;;;;;8.15;4.95;;;9.50;99.90;;;;;;5071690;28;20079;-86
2021/05/19 01:36:32;;;;;;;10.07;5.47;;;9.50;99.90;;;;;;5076029;28;20040;-86
2021/05/19 01:38:58;;;;;;;7.28;5.70;;;9.50;99.90;;;;;;5071406;28;20036;-86
2021/05/19 01:41:24;;;;;;;8.45;5.20;;;9.60;99.90;;;;;;5071554;28;20640;-86
2021/05/19 01:43:50;;;;;;;10.13;7.05;;;9.60;99.90;;;;;;5089614;28;20040;-86
2021/05/19 01:46:16;;;;;;;13.25;6.97;;;9.60;99.90;;;;;;5036649;28;20043;-86
2021/05/19 01:48:43;;;;;;;9.77;6.07;;;9.60;99.90;;;;;;5051973;28;20024;-86
2021/05/19 01:51:09;;;;;;;10.75;6.75;;;9.70;99.90;;;;;;5089346;28;20036;-86
2021/05/19 01:53:36;;;;;;;6.18;5.55;;;9.70;99.90;;;;;;5053519;28;20033;-86
2021/05/19 01:56:02;;;;;;;10.02;6.57;;;9.70;99.90;;;;;;5070391;28;20107;-86
2021/05/19 01:58:31;;;;;;;7.45;5.88;;;9.70;99.90;;;;;;5036205;28;20086;-86
2021/05/19 02:00:57;;;;;;;8.23;6.30;;;9.70;99.90;;;;;;5088896;28;20036;-86
2021/05/19 02:03:24;;;;;;;9.27;6.18;;;9.70;99.90;;;;;;5070780;28;20050;-86
2021/05/19 02:05:50;;;;;;;11.05;6.35;;;9.70;99.90;;;;;;5088826;28;20074;-84
2021/05/19 02:08:16;;;;;;;7.57;5.72;;;9.70;99.90;;;;;;5049986;28;20463;-86
2021/05/19 02:10:42;;;;;;;7.97;6.63;;;9.60;99.90;;;;;;5038072;28;20090;-85
2021/05/19 02:13:10;;;;;;;8.35;6.80;;;9.60;99.90;;;;;;5038399;28;20450;-86
2021/05/19 02:15:37;;;;;;;9.40;6.05;;;9.60;99.90;;;;;;5071560;28;20546;-86
2021/05/19 02:18:03;;;;;;;9.52;7.50;;;9.60;99.90;;;;;;5060741;28;20036;-86
2021/05/19 02:20:31;;;;;;;9.13;6.70;;;9.50;99.90;;;;;;5070283;28;20059;-86
2021/05/19 02:23:04;;;;;;;7.80;6.20;;;9.50;99.90;;;;;;5055500;28;20032;-85
2021/05/19 02:25:30;;;;;;;12.70;7.22;;;9.50;99.90;;;;;;5070258;28;20059;-85
2021/05/19 02:27:56;;;;;;;9.63;7.18;;;9.50;99.90;;;;;;5069904;28;20046;-86
2021/05/19 02:30:22;;;;;;;9.30;6.88;;;9.50;99.90;;;;;;5053187;28;20119;-85
2021/05/19 02:32:49;;;;;;;13.63;6.80;;;9.40;99.90;;;;;;5062168;28;20636;-86
2021/05/19 02:35:16;;;;;;;8.68;6.53;;;9.50;99.90;;;;;;5066917;28;20090;-86
2021/05/19 02:37:42;;;;;;;11.07;6.75;;;9.50;99.90;;;;;;5070142;28;20064;-86
2021/05/19 02:40:10;;;;;;;8.73;7.20;;;9.50;99.90;;;;;;5066314;28;20046;-86
2021/05/19 02:42:36;;;;;;;11.43;7.38;;;9.50;99.90;;;;;;5067026;28;20037;-86
2021/05/19 02:45:06;;;;;;;8.68;6.88;;;9.50;99.90;;;;;;5068478;28;20041;-86
2021/05/19 02:47:32;;;;;;;7.35;6.47;;;9.40;99.90;;;;;;5066058;28;20036;-86
2021/05/19 02:49:58;;;;;;;9.85;6.63;;;9.40;99.90;;;;;;5067988;28;20044;-86
2021/05/19 02:52:24;;;;;;;10.27;7.28;;;9.40;99.90;;;;;;5046233;28;20043;-86
2021/05/19 02:54:50;;;;;;;8.63;7.43;;;9.30;99.90;;;;;;5049630;28;20097;-86
2021/05/19 02:57:16;;;;;;;11.43;7.40;;;9.30;99.90;;;;;;5065544;28;20037;-86
2021/05/19 02:59:43;;;;;;;10.93;7.25;;;9.20;99.90;;;;;;5055716;28;20063;-86
2021/05/19 03:02:09;;;;;;;10.85;7.80;;;9.20;99.90;;;;;;5031836;28;20481;-85
2021/05/19 03:04:35;;;;;;;10.07;7.22;;;9.10;99.90;;;;;;5065999;28;20046;-86
2021/05/19 03:07:03;;;;;;;14.68;8.27;;;9.20;99.90;;;;;;5032979;28;20033;-86
2021/05/19 03:09:29;;;;;;;13.05;7.05;;;9.20;99.90;;;;;;5047858;28;20044;-86
2021/05/19 03:11:55;;;;;;;11.15;7.78;;;9.20;99.90;;;;;;5032401;28;20060;-85
2021/05/19 03:14:21;;;;;;;9.70;7.78;;;9.20;99.90;;;;;;5066960;28;20107;-85
2021/05/19 03:16:47;;;;;;;13.50;9.63;;;9.20;99.90;;;;;;5069075;28;20124;-85
2021/05/19 03:19:13;;;;;;;13.48;9.18;;;9.20;99.90;;;;;;5049644;28;20119;-85
2021/05/19 03:21:38;;;;;;;11.02;9.60;;;9.20;99.90;;;;;;5048873;28;20499;-85
2021/05/19 03:24:05;;;;;;;15.38;10.27;;;9.20;99.90;;;;;;5058378;28;20036;-85
2021/05/19 03:26:33;;;;;;;16.42;10.52;;;9.20;99.90;;;;;;5047976;28;20033;-85
2021/05/19 03:29:00;;;;;;;14.25;9.95;;;9.30;99.90;;;;;;5038908;28;20040;-86
2021/05/19 03:31:26;;;;;;;11.25;9.55;;;9.30;99.90;;;;;;5046318;28;20512;-85
2021/05/19 03:33:52;;;;;;;15.50;10.85;;;9.30;99.90;;;;;;5044154;28;20099;-86
2021/05/19 03:36:18;;;;;;;11.82;10.27;;;9.30;99.90;;;;;;5031007;28;20040;-85
2021/05/19 03:38:44;;;;;;;14.32;11.57;;;9.30;99.90;;;;;;5045519;28;20037;-86
2021/05/19 03:41:10;;;;;;;13.95;11.20;;;9.40;99.90;;;;;;5065395;28;20040;-86
2021/05/19 03:43:36;;;;;;;15.52;11.60;;;9.40;99.90;;;;;;5044268;28;20435;-85
2021/05/19 03:46:03;;;;;;;18.77;12.40;;;9.40;99.90;;;;;;5048683;28;20029;-85
2021/05/19 03:48:29;;;;;;;15.75;12.23;;;9.40;99.90;;;;;;5074397;28;20131;-86
2021/05/19 03:50:55;;;;;;;13.73;11.80;;;9.40;99.90;;;;;;5068256;28;20102;-85
2021/05/19 03:53:21;;;;;;;16.38;12.15;;;9.40;99.90;;;;;;5049121;28;20119;-86
2021/05/19 03:55:47;;;;;;;15.60;11.48;;;9.50;99.90;;;;;;5065310;28;20487;-86
2021/05/19 03:58:14;;;;;;;15.00;11.15;;;9.50;99.90;;;;;;5073629;28;20036;-86
2021/05/19 04:00:41;;;;;;;14.40;11.52;;;9.50;99.90;;;;;;5065984;28;20415;-85
2021/05/19 04:03:07;;;;;;;15.90;12.93;;;9.50;99.90;;;;;;5032648;28;20043;-86
2021/05/19 04:05:36;;;;;;;15.73;12.27;;;9.50;99.90;;;;;;5067141;28;20048;-86
2021/05/19 04:08:03;;;;;;;16.90;12.93;;;9.50;99.90;;;;;;5065031;28;20499;-85
2021/05/19 04:10:30;;;;;;;16.35;12.27;;;9.50;99.90;;;;;;5048175;28;20041;-86
2021/05/19 04:12:57;;;;;;;20.85;17.17;;;9.50;99.90;;;;;;5067617;28;20028;-85
2021/05/19 04:15:25;;;;;;;22.17;15.65;;;9.50;99.90;;;;;;5069033;28;20517;-86
2021/05/19 04:17:52;;;;;;;28.15;19.35;;;9.60;99.90;;;;;;5068686;28;20036;-86
2021/05/19 04:20:18;;;;;;;29.60;19.75;;;9.60;99.90;;;;;;5069042;28;20044;-86
2021/05/19 04:22:44;;;;;;;24.67;19.27;;;9.60;99.90;;;;;;5068133;28;20047;-86
2021/05/19 04:25:11;;;;;;;28.45;19.17;;;9.70;99.90;;;;;;5069269;28;20115;-86
2021/05/19 04:27:37;;;;;;;24.63;18.83;;;9.80;99.90;;;;;;5052054;28;20407;-85
2021/05/19 04:30:05;;;;;;;25.42;19.65;;;9.80;99.90;;;;;;5052458;28;20036;-86
2021/05/19 04:32:31;;;;;;;25.08;19.05;;;9.80;99.90;;;;;;5046115;28;20045;-86
2021/05/19 04:34:56;;;;;;;24.52;20.10;;;9.90;99.90;;;;;;5049760;28;20465;-86
2021/05/19 04:37:22;;;;;;;28.13;18.40;;;10.00;99.90;;;;;;5032130;28;20484;-86
2021/05/19 04:39:48;;;;;;;26.08;19.95;;;10.10;99.90;;;;;;5031690;28;20128;-86
2021/05/19 04:42:15;;;;;;;26.60;19.17;;;10.20;99.90;;;;;;5048475;28;20120;-84
2021/05/19 04:44:40;;;;;;;24.50;19.75;;;10.30;99.90;;;;;;5049465;28;20480;-85
2021/05/19 04:47:06;;;;;;;26.83;19.98;;;10.30;99.90;;;;;;5030042;28;20451;-85
2021/05/19 04:49:32;;;;;;;26.42;20.08;;;10.40;99.90;;;;;;5057444;28;20033;-85
2021/05/19 04:51:59;;;;;;;27.65;21.55;;;10.50;99.90;;;;;;5048419;28;20060;-84
2021/05/19 04:54:25;;;;;;;32.03;21.52;;;10.50;99.90;;;;;;5056712;28;20459;-85
2021/05/19 04:56:51;;;;;;;28.65;20.70;;;10.60;99.90;;;;;;5072393;28;20037;-84
2021/05/19 04:59:17;;;;;;;27.83;20.58;;;10.70;99.90;;;;;;5031740;28;20095;-85
2021/05/19 05:01:43;;;;;;;31.17;20.92;;;10.70;99.90;;;;;;5049171;28;20037;-85
2021/05/19 05:04:09;;;;;;;28.77;21.48;;;10.80;99.90;;;;;;5030794;28;20029;-84
2021/05/19 05:06:35;;;;;;;26.05;20.38;;;10.80;99.90;;;;;;5046971;28;20052;-85
2021/05/19 05:09:01;;;;;;;28.52;20.52;;;10.90;99.90;;;;;;5060178;28;20496;-85
2021/05/19 05:11:26;;;;;;;29.73;21.10;;;10.90;99.90;;;;;;5048965;28;20508;-85
2021/05/19 05:13:52;;;;;;;25.10;19.75;;;11.00;99.90;;;;;;5048291;28;20037;-85
2021/05/19 05:16:18;;;;;;;30.13;20.92;;;11.00;99.90;;;;;;5056483;28;20493;-84
2021/05/19 05:18:44;;;;;;;30.65;21.45;;;11.00;99.90;;;;;;5028403;28;20042;-84
2021/05/19 05:21:12;;;;;;;31.25;22.05;;;11.10;99.90;;;;;;5032396;28;20106;-85
2021/05/19 05:23:38;;;;;;;28.77;20.30;;;11.10;99.90;;;;;;5055070;28;20065;-85
2021/05/19 05:26:04;;;;;;;28.08;20.33;;;11.10;99.90;;;;;;5054606;28;20487;-85
2021/05/19 05:28:32;;;;;;;28.77;20.10;;;11.20;99.90;;;;;;5046827;28;20033;-85
2021/05/19 05:30:58;;;;;;;30.90;21.20;;;11.20;99.90;;;;;;5049112;28;20430;-84
2021/05/19 05:33:24;;;;;;;30.88;21.38;;;11.20;99.90;;;;;;5084870;28;20912;-85
2021/05/19 05:35:51;;;;;;;28.27;19.75;;;11.20;99.90;;;;;;5087647;28;20411;-85
2021/05/19 05:38:17;;;;;;;26.73;19.42;;;11.30;99.90;;;;;;5068865;28;20534;-85
2021/05/19 05:40:43;;;;;;;25.75;19.52;;;11.30;99.90;;;;;;5089158;28;20525;-85
2021/05/19 05:43:09;;;;;;;27.27;18.00;;;11.30;99.90;;;;;;5072612;28;20035;-85
2021/05/19 05:45:34;;;;;;;26.58;18.48;;;11.40;99.90;;;;;;5095669;28;20179;-85
2021/05/19 05:48:01;;;;;;;24.30;17.95;;;11.30;99.90;;;;;;5078064;28;20532;-85
2021/05/19 05:50:27;;;;;;;29.15;19.10;;;11.40;99.90;;;;;;5071446;28;20066;-85
2021/05/19 05:52:53;;;;;;;24.83;18.63;;;11.30;99.90;;;;;;5071116;28;20040;-85
2021/05/19 05:55:22;;;;;;;28.85;19.88;;;11.40;99.90;;;;;;5053854;28;20629;-85
2021/05/19 05:57:49;;;;;;;28.10;19.83;;;11.30;99.90;;;;;;5075085;28;20488;-85
2021/05/19 06:00:16;;;;;;;32.13;21.60;;;11.40;99.90;;;;;;5047526;28;20127;-85
2021/05/19 06:02:43;;;;;;;29.23;20.52;;;11.40;99.90;;;;;;5070543;28;20047;-85
2021/05/19 06:05:10;;;;;;;31.65;20.80;;;11.50;99.90;;;;;;5067889;28;20036;-85
2021/05/19 06:07:37;;;;;;;30.83;20.65;;;11.50;99.90;;;;;;5061614;28;20048;-85
2021/05/19 06:10:04;;;;;;;30.33;20.15;;;11.60;99.90;;;;;;5077384;28;20517;-85
2021/05/19 06:12:30;;;;;;;28.80;19.75;;;11.60;99.90;;;;;;5050531;28;20036;-85
2021/05/19 06:14:56;;;;;;;28.75;18.48;;;11.70;99.90;;;;;;5077916;28;20044;-85
2021/05/19 06:17:21;;;;;;;26.20;18.45;;;11.70;99.90;;;;;;5060964;28;20035;-85
2021/05/19 06:19:47;;;;;;;23.00;16.92;;;11.70;99.90;;;;;;5082086;28;20475;-85
2021/05/19 06:22:13;;;;;;;20.48;15.98;;;11.70;99.90;;;;;;5040605;28;20050;-85
2021/05/19 06:24:40;;;;;;;28.20;17.10;;;11.70;99.90;;;;;;5072849;28;20453;-85
2021/05/19 06:27:06;;;;;;;25.25;16.05;;;11.70;99.90;;;;;;5080325;28;20056;-85
2021/05/19 06:29:32;;;;;;;27.42;16.02;;;11.70;99.90;;;;;;5035313;28;20577;-85
2021/05/19 06:31:58;;;;;;;24.38;16.35;;;11.60;99.90;;;;;;5049488;28;20040;-85
2021/05/19 06:34:24;;;;;;;27.10;17.13;;;11.60;99.90;;;;;;5088348;28;20073;-85
2021/05/19 06:36:51;;;;;;;21.00;15.95;;;11.70;99.90;;;;;;5056012;28;20048;-85
2021/05/19 06:39:22;;;;;;;21.50;14.50;;;11.70;99.90;;;;;;5085082;28;20035;-85
2021/05/19 06:41:50;;;;;;;25.63;15.88;;;11.80;99.90;;;;;;5071002;28;20036;-85
2021/05/19 06:44:17;;;;;;;27.13;13.95;;;11.80;99.90;;;;;;5085446;28;20035;-86
2021/05/19 06:46:44;;;;;;;20.25;12.73;;;11.90;99.90;;;;;;5073853;28;20036;-85
2021/05/19 06:49:10;;;;;;;21.98;13.82;;;12.00;99.90;;;;;;5070515;28;20032;-85
2021/05/19 06:51:38;;;;;;;21.58;14.35;;;12.10;99.90;;;;;;5080981;28;20039;-85
2021/05/19 06:54:04;;;;;;;20.88;12.85;;;12.30;99.90;;;;;;5110897;28;20723;-85
2021/05/19 06:56:31;;;;;;;23.33;12.73;;;12.40;99.90;;;;;;5073873;28;20031;-85
2021/05/19 06:58:57;;;;;;;15.88;10.38;;;12.50;99.90;;;;;;5071927;28;20039;-86
2021/05/19 07:01:24;;;;;;;17.08;11.02;;;12.50;99.90;;;;;;5029915;28;20040;-85
2021/05/19 07:03:50;;;;;;;13.80;9.35;;;12.50;99.90;;;;;;5054304;28;20044;-85
2021/05/19 07:06:20;;;;;;;17.17;9.57;;;12.50;99.90;;;;;;5053075;28;20091;-85
2021/05/19 07:08:47;;;;;;;11.20;7.20;;;12.40;99.90;;;;;;5055388;28;20040;-85
2021/05/19 07:11:13;;;;;;;11.38;7.22;;;12.40;99.90;;;;;;5067437;28;20441;-85
2021/05/19 07:13:39;;;;;;;11.55;7.07;;;12.40;99.90;;;;;;5070583;28;20040;-86
2021/05/19 07:16:07;;;;;;;8.52;5.80;;;12.30;99.90;;;;;;5073404;28;20059;-85
2021/05/19 07:18:33;;;;;;;9.40;5.70;;;12.20;99.90;;;;;;5060262;28;20385;-85
2021/05/19 07:20:59;;;;;;;9.90;5.95;;;12.20;99.90;;;;;;5073393;28;20040;-85
2021/05/19 07:23:25;;;;;;;9.30;5.70;;;12.10;99.90;;;;;;5052116;28;20465;-85
2021/05/19 07:25:51;;;;;;;11.05;5.82;;;12.10;99.90;;;;;;5053265;28;20035;-85
2021/05/19 07:28:17;;;;;;;34.78;26.65;;;12.00;99.90;;;;;;5059480;28;20123;-85
2021/05/19 07:30:47;;;;;;;10.20;7.32;;;12.10;99.90;;;;;;5058432;28;20041;-85
2021/05/19 07:33:13;;;;;;;10.90;5.95;;;12.00;99.90;;;;;;5056992;28;20501;-85
2021/05/19 07:35:39;;;;;;;8.60;5.57;;;12.10;99.90;;;;;;5050067;28;20470;-85
2021/05/19 07:38:09;;;;;;;9.15;4.75;;;12.20;99.90;;;;;;5041266;28;20457;-85
2021/05/19 07:40:35;;;;;;;8.30;4.70;;;12.30;99.90;;;;;;5048515;28;20047;-85
2021/05/19 07:43:02;;;;;;;8.85;5.05;;;12.50;99.90;;;;;;5058040;28;20063;-85
2021/05/19 07:45:28;;;;;;;10.98;5.13;;;12.60;99.90;;;;;;5069249;28;20032;-86
2021/05/19 07:47:54;;;;;;;10.40;4.25;;;12.70;99.90;;;;;;5055589;28;20041;-84
2021/05/19 07:50:21;;;;;;;9.25;4.22;;;12.90;99.90;;;;;;5078276;28;20105;-85
2021/05/19 07:52:46;;;;;;;7.60;4.55;;;13.00;99.90;;;;;;5069607;28;20491;-85
2021/05/19 07:56:05;;;;;;;7.32;3.70;;;13.00;99.90;;;;;;5053164;28;20043;-85
2021/05/19 07:58:02;;;;;;;6.55;4.13;;;13.00;99.90;;;;;;5060293;28;20047;-85
2021/05/19 08:03:14;;;;;;;6.72;4.03;;;12.90;99.90;;;;;;5056344;28;20044;-85
2021/05/19 08:05:41;;;;;;;5.22;3.20;;;12.90;99.90;;;;;;5062750;28;20380;-86
2021/05/19 08:08:07;;;;;;;167.18;89.30;;;12.90;99.90;;;;;;5082184;28;20036;-86
2021/05/19 08:10:33;;;;;;;8.35;3.90;;;12.90;99.90;;;;;;5100735;28;20040;-85
2021/05/19 08:12:59;;;;;;;4.55;3.03;;;12.90;99.90;;;;;;5089357;28;20446;-84
2021/05/19 08:15:25;;;;;;;7.75;3.10;;;12.80;99.90;;;;;;5042060;28;20035;-85
2021/05/19 08:17:50;;;;;;;6.50;3.00;;;12.80;99.90;;;;;;5054735;28;20031;-85
2021/05/19 08:20:20;;;;;;;6.78;3.60;;;12.80;99.90;;;;;;5053028;28;20115;-85
2021/05/19 08:22:47;;;;;;;7.88;3.15;;;12.90;99.90;;;;;;5045949;28;20089;-85
2021/05/19 08:25:13;;;;;;;7.05;2.80;;;13.10;99.90;;;;;;5056941;28;20032;-85
2021/05/19 08:27:39;;;;;;;8.02;3.30;;;13.20;99.90;;;;;;5086118;28;20585;-85
2021/05/19 08:30:05;;;;;;;3.60;2.15;;;13.30;99.90;;;;;;5081314;28;20035;-85
2021/05/19 08:32:31;;;;;;;4.68;2.80;;;13.30;99.90;;;;;;5076648;28;20040;-85
2021/05/19 08:34:58;;;;;;;5.30;3.15;;;13.30;99.90;;;;;;5106528;28;20560;-85
2021/05/19 08:37:24;;;;;;;6.00;2.78;;;13.30;99.90;;;;;;5055946;28;20037;-85
2021/05/19 08:39:49;;;;;;;5.70;2.97;;;13.30;99.90;;;;;;5031526;28;20047;-84
2021/05/19 08:42:15;;;;;;;5.82;3.00;;;13.30;99.90;;;;;;5064387;28;20166;-84
2021/05/19 08:44:42;;;;;;;6.70;3.25;;;13.40;99.90;;;;;;5054533;28;20035;-84
2021/05/19 08:47:11;;;;;;;7.78;2.95;;;13.50;99.90;;;;;;5073665;28;20035;-84
2021/05/19 08:49:39;;;;;;;4.88;3.03;;;13.60;99.90;;;;;;5074785;28;20048;-85
2021/05/19 08:52:05;;;;;;;8.85;3.90;;;13.70;99.90;;;;;;5100400;28;20620;-85
2021/05/19 08:54:31;;;;;;;7.03;4.00;;;13.80;99.90;;;;;;5074160;28;20036;-84
2021/05/19 08:56:57;;;;;;;8.15;3.58;;;13.80;99.90;;;;;;5040434;28;20707;-84
2021/05/19 08:59:23;;;;;;;10.38;4.63;;;13.80;99.90;;;;;;5053754;28;20028;-85
2021/05/19 09:01:51;;;;;;;6.80;3.17;;;13.90;99.90;;;;;;5063356;28;20036;-85
2021/05/19 09:04:19;;;;;;;7.28;3.22;;;14.00;99.90;;;;;;5096809;28;20040;-85
2021/05/19 09:07:02;;;;;;;6.13;2.70;;;14.10;99.90;;;;;;5060988;28;20028;-86
2021/05/19 09:09:30;;;;;;;6.60;3.45;;;14.20;99.90;;;;;;5056106;28;20036;-86
2021/05/19 09:11:59;;;;;;;17.20;12.50;;;14.20;99.90;;;;;;5048084;28;20048;-86
2021/05/19 09:14:27;;;;;;;9.55;3.58;;;14.10;99.90;;;;;;5068208;28;20039;-86
2021/05/19 09:16:54;;;;;;;11.43;3.97;;;13.90;99.90;;;;;;5108985;28;20028;-86
2021/05/19 09:19:33;;;;;;;7.70;3.63;;;13.80;99.90;;;;;;5070664;28;20042;-85
2021/05/19 09:21:59;;;;;;;8.50;4.35;;;13.70;99.90;;;;;;5076816;28;20035;-86
2021/05/19 09:24:34;;;;;;;5.60;3.90;;;13.70;99.90;;;;;;5057000;28;20498;-86
2021/05/19 09:27:02;;;;;;;6.63;4.05;;;13.70;99.90;;;;;;5064750;28;20031;-86
2021/05/19 09:29:33;;;;;;;7.93;3.40;;;13.80;99.90;;;;;;5104609;28;20039;-86
2021/05/19 09:32:05;;;;;;;6.47;3.38;;;14.00;99.90;;;;;;5072538;28;20032;-85
2021/05/19 09:34:38;;;;;;;7.00;3.30;;;14.10;99.90;;;;;;5073237;28;20391;-86
2021/05/19 09:37:21;;;;;;;5.63;4.40;;;14.20;99.90;;;;;;5088399;28;20050;-86
2021/05/19 09:39:50;;;;;;;7.18;4.00;;;14.40;99.90;;;;;;5079297;28;20131;-85
2021/05/19 09:42:17;;;;;;;5.25;3.55;;;14.50;99.90;;;;;;5048021;28;20079;-86
2021/05/19 09:44:46;;;;;;;6.25;4.43;;;14.60;99.90;;;;;;5045567;28;20059;-85
2021/05/19 09:47:13;;;;;;;8.80;4.40;;;14.70;99.90;;;;;;5076047;28;20032;-86
2021/05/19 09:49:39;;;;;;;10.25;4.45;;;14.80;99.90;;;;;;5068955;28;20031;-85
2021/05/19 09:52:13;;;;;;;5.38;4.03;;;14.80;99.90;;;;;;5044066;28;20597;-85
2021/05/19 09:54:44;;;;;;;5.85;3.90;;;14.80;99.90;;;;;;5063455;28;20032;-85
2021/05/19 09:57:12;;;;;;;8.70;3.97;;;14.90;99.90;;;;;;5079586;28;20072;-84
2021/05/19 09:59:43;;;;;;;5.78;4.03;;;14.90;99.90;;;;;;5069833;28;20585;-84
2021/05/19 10:02:10;;;;;;;7.00;4.10;;;14.90;99.90;;;;;;5060117;28;20032;-84
2021/05/19 10:04:46;;;;;;;9.02;4.07;;;14.80;99.90;;;;;;5077681;28;20035;-85
2021/05/19 10:07:17;;;;;;;4.63;2.88;;;14.70;99.90;;;;;;5079107;28;20473;-86
2021/05/19 10:09:42;;;;;;;5.93;3.20;;;14.60;99.90;;;;;;5060116;28;20398;-85
2021/05/19 10:12:10;;;;;;;5.80;2.40;;;14.60;99.90;;;;;;5077641;28;20053;-85
2021/05/19 10:14:37;;;;;;;8.32;2.70;;;14.50;99.90;;;;;;5079910;28;20044;-85
2021/05/19 10:17:14;;;;;;;7.03;3.20;;;14.40;99.90;;;;;;5067932;28;20040;-85
2021/05/19 10:19:50;;;;;;;6.88;3.13;;;14.30;99.90;;;;;;5091678;28;20430;-85
2021/05/19 10:22:18;;;;;;;7.68;4.28;;;14.20;99.90;;;;;;5070479;28;20498;-84
2021/05/19 10:25:02;;;;;;;6.18;4.28;;;14.30;99.90;;;;;;5051768;28;20046;-85
2021/05/19 10:27:47;;;;;;;5.40;3.33;;;14.30;99.90;;;;;;5070212;28;20043;-85
2021/05/19 10:30:46;;;;;;;7.43;3.55;;;14.30;99.90;;;;;;5069241;28;20043;-85
2021/05/19 10:33:39;;;;;;;10.05;4.43;;;14.30;99.90;;;;;;5070170;28;20115;-85
2021/05/19 10:36:24;;;;;;;9.40;5.30;;;14.20;99.90;;;;;;5067740;28;20471;-84
2021/05/19 10:39:11;;;;;;;15.85;5.90;;;14.10;99.90;;;;;;5070980;28;20068;-85
2021/05/19 10:41:48;;;;;;;14.88;8.02;;;13.70;99.90;;;;;;5069502;28;20040;-85
2021/05/19 10:44:18;;;;;;;14.05;8.15;;;13.30;99.90;;;;;;5069196;28;20043;-85
2021/05/19 10:46:58;;;;;;;12.05;8.45;;;13.00;99.90;;;;;;5070408;28;20071;-85
2021/05/19 10:49:43;;;;;;;19.02;10.13;;;12.80;99.90;;;;;;5074582;28;20036;-85
2021/05/19 10:52:20;;;;;;;13.90;9.40;;;12.70;99.90;;;;;;5070030;28;20071;-85
2021/05/19 10:57:56;;;;;;;16.90;10.85;;;12.60;99.90;;;;;;5070871;28;20077;-85
2021/05/19 11:00:26;;;;;;;15.70;9.55;;;12.60;99.90;;;;;;5052875;28;20044;-84
2021/05/19 11:05:36;;;;;;;13.95;9.63;;;12.60;99.90;;;;;;5087096;28;20028;-85
2021/05/19 11:10:41;;;;;;;13.15;9.05;;;12.50;99.90;;;;;;5087796;28;20119;-84
2021/05/19 11:13:08;;;;;;;16.35;10.15;;;12.40;99.90;;;;;;5072622;28;20040;-84
2021/05/19 11:21:01;;;;;;;19.27;10.70;;;12.00;99.90;;;;;;5101889;28;20040;-85
2021/05/19 11:23:27;;;;;;;36.97;11.45;;;11.80;99.90;;;;;;5046111;28;20085;-85
2021/05/19 11:26:10;;;;;;;14.18;9.48;;;11.50;99.90;;;;;;5069548;28;20054;-85
2021/05/19 11:28:37;;;;;;;17.15;8.13;;;11.20;99.90;;;;;;5103807;28;20420;-85
2021/05/19 11:31:14;;;;;;;17.17;9.32;;;11.10;99.90;;;;;;5063171;28;20031;-84
2021/05/19 11:33:57;;;;;;;19.05;10.52;;;11.00;99.90;;;;;;5061914;28;20044;-85
2021/05/19 11:36:41;;;;;;;26.00;12.90;;;11.00;99.90;;;;;;5067889;28;20507;-85
2021/05/19 11:39:22;;;;;;;35.60;13.60;;;11.00;99.90;;;;;;5088782;28;20089;-85
2021/05/19 11:41:49;;;;;;;77.57;13.77;;;11.00;99.90;;;;;;5069745;28;20070;-85
2021/05/19 11:44:36;;;;;;;37.95;12.07;;;11.00;99.90;;;;;;5036996;28;20043;-85
2021/05/19 11:47:02;;;;;;;35.17;11.32;;;10.90;99.90;;;;;;5082103;28;20045;-85
2021/05/19 11:49:28;;;;;;;26.20;9.57;;;10.80;99.90;;;;;;5048851;28;20123;-86
2021/05/19 11:51:54;;;;;;;19.30;8.30;;;10.80;99.90;;;;;;5053346;28;20116;-85
2021/05/19 11:54:21;;;;;;;17.35;9.68;;;10.70;99.90;;;;;;5067880;28;20410;-86
2021/05/19 11:56:50;;;;;;;23.08;11.60;;;10.70;99.90;;;;;;5090700;28;20063;-86
2021/05/19 11:59:25;;;;;;;30.67;12.93;;;10.70;99.90;;;;;;5064640;28;20063;-85
2021/05/19 12:02:00;;;;;;;19.00;9.25;;;10.80;99.90;;;;;;5080925;28;20036;-85
2021/05/19 12:04:27;;;;;;;10.35;6.57;;;10.90;99.90;;;;;;5075456;28;20561;-86
2021/05/19 12:06:54;;;;;;;12.93;8.55;;;10.90;99.90;;;;;;5061644;28;20040;-85
2021/05/19 12:09:22;;;;;;;15.73;8.73;;;10.90;99.90;;;;;;5044841;28;20113;-85
2021/05/19 12:11:49;;;;;;;14.90;8.30;;;10.90;99.90;;;;;;5047021;28;20044;-85
2021/05/19 12:14:17;;;;;;;11.52;7.32;;;11.00;99.90;;;;;;5075724;28;20496;-85
2021/05/19 12:16:47;;;;;;;26.92;11.07;;;11.00;99.90;;;;;;5034319;28;20048;-87
2021/05/19 12:19:13;;;;;;;14.27;7.60;;;11.00;99.90;;;;;;5048808;28;20028;-87
2021/05/19 12:22:09;;;;;;;21.17;10.68;;;11.10;99.90;;;;;;5065959;28;20028;-86
2021/05/19 12:24:35;;;;;;;21.67;10.77;;;11.20;99.90;;;;;;5083380;28;20152;-86
2021/05/19 12:27:02;;;;;;;21.33;12.45;;;11.20;99.90;;;;;;5091072;28;20096;-86
2021/05/19 12:29:31;;;;;;;42.45;18.15;;;11.30;99.90;;;;;;5074096;28;20157;-85
2021/05/19 12:32:27;;;;;;;18.80;11.32;;;11.30;99.90;;;;;;5066515;28;20044;-85
2021/05/19 12:35:00;;;;;;;13.80;7.80;;;11.30;99.90;;;;;;5056311;28;20059;-85
2021/05/19 12:37:55;;;;;;;12.02;6.90;;;11.20;99.90;;;;;;5064418;28;20094;-85
2021/05/19 12:40:26;;;;;;;9.05;5.40;;;11.00;99.90;;;;;;5074176;28;20053;-84
2021/05/19 12:42:55;;;;;;;9.02;5.50;;;10.90;99.90;;;;;;5067726;28;20036;-84
2021/05/19 12:45:38;;;;;;;4.68;2.67;;;10.80;99.90;;;;;;5067967;28;20032;-85
2021/05/19 12:48:09;;;;;;;7.97;3.60;;;10.70;99.90;;;;;;5050735;28;20852;-85
2021/05/19 12:51:00;;;;;;;3.42;1.80;;;10.70;99.90;;;;;;5067680;28;20143;-85
2021/05/19 12:53:31;;;;;;;3.97;2.20;;;10.60;99.90;;;;;;5065429;28;20594;-85
2021/05/19 12:56:17;;;;;;;5.65;3.40;;;10.50;99.90;;;;;;5069054;28;20036;-85
2021/05/19 12:59:06;;;;;;;6.53;1.95;;;10.50;99.90;;;;;;5074321;28;20054;-85
2021/05/19 13:01:46;;;;;;;3.03;1.77;;;10.50;99.90;;;;;;5070310;28;20064;-85
2021/05/19 13:04:13;;;;;;;13.55;2.72;;;10.40;99.90;;;;;;5066967;28;20040;-86